LEBG

Burgos Airport

Airport
ICAO code
LEBG
IATA Code
RGS
Summary
ICAO Region
EUR
ICAO Territory
Location

, Castilla y Leon

Serving
Burgos
Elevation
2945 ft
Coordinates
42° 21' 27" N , 3° 37' 15" W
Metar
LEBG 191900Z AUTO 02006KT 310V050 CAVOK 16/09 Q1016

Runways

Designator Length Width Surface Rops
6/24 1339 30 ASP No/No

Airport map

Aerial View

SKYbrary Partners:

Safety knowledge contributed by: